Time;durP1;ratioP1;P1;durP2;ratioP2;P2;SDS_P1;SDS_P2;PMS_P1;PMS_P2;Temp;Humidity;BMP_temperature;BMP_pressure;BME280_temperature;BME280_humidity;BME280_pressure;Samples;Min_cycle;Max_cycle;Signal;HPM_P1;HPM_P2
2022/06/10 00:02:10;;;;;;;37.55;28.20;;;25.30;99.90;;;;;;5072080;28;20040;-65
2022/06/10 00:04:36;;;;;;;42.65;31.13;;;25.40;99.90;;;;;;5072490;28;20019;-67
2022/06/10 00:07:03;;;;;;;43.85;30.25;;;25.50;99.90;;;;;;5065358;28;20041;-64
2022/06/10 00:09:30;;;;;;;39.83;29.50;;;25.60;99.90;;;;;;5053065;28;20073;-64
2022/06/10 00:11:57;;;;;;;40.35;28.13;;;25.60;99.90;;;;;;5066202;28;20543;-64
2022/06/10 00:14:23;;;;;;;32.47;23.02;;;25.70;99.90;;;;;;5073629;28;20036;-64
2022/06/10 00:16:51;;;;;;;28.70;21.45;;;25.80;99.90;;;;;;5067401;28;20032;-62
2022/06/10 00:19:18;;;;;;;27.88;19.77;;;25.80;99.90;;;;;;5073014;28;20109;-65
2022/06/10 00:21:44;;;;;;;26.25;17.90;;;25.80;99.90;;;;;;5071695;28;20485;-64
2022/06/10 00:24:11;;;;;;;20.05;15.95;;;25.80;99.90;;;;;;5072760;28;20055;-64
2022/06/10 00:26:37;;;;;;;20.00;14.38;;;25.80;99.90;;;;;;5073591;28;20680;-63
2022/06/10 00:29:04;;;;;;;21.73;13.98;;;25.90;99.90;;;;;;5073950;28;20021;-63
2022/06/10 00:31:31;;;;;;;16.98;10.30;;;25.90;99.90;;;;;;5070495;28;20128;-65
2022/06/10 00:33:58;;;;;;;11.30;9.35;;;25.90;99.90;;;;;;5072161;28;20048;-63
2022/06/10 00:36:25;;;;;;;15.40;9.18;;;25.90;99.90;;;;;;5072868;28;20017;-64
2022/06/10 00:38:52;;;;;;;14.02;8.73;;;26.00;99.90;;;;;;5073577;28;20035;-65
2022/06/10 00:41:19;;;;;;;20.15;11.40;;;25.90;99.90;;;;;;5072009;28;20059;-63
2022/06/10 00:43:46;;;;;;;21.25;12.13;;;26.00;99.90;;;;;;5073588;28;20029;-64
2022/06/10 00:46:20;;;;;;;11.48;8.52;;;25.90;99.90;;;;;;5073400;28;20100;-64
2022/06/10 00:48:53;;;;;;;17.98;8.70;;;25.90;99.90;;;;;;5077250;28;20019;-65
2022/06/10 00:51:32;;;;;;;10.48;6.63;;;26.00;99.90;;;;;;5075676;28;20025;-70
2022/06/10 00:54:07;;;;;;;13.98;8.18;;;26.00;99.90;;;;;;5077186;28;20024;-71
2022/06/10 00:56:36;;;;;;;13.05;8.15;;;26.00;99.90;;;;;;5096229;22;20493;-71
2022/06/10 00:59:15;;;;;;;14.25;7.60;;;26.10;99.90;;;;;;5077054;28;20087;-70
2022/06/10 01:01:42;;;;;;;10.88;6.88;;;26.10;99.90;;;;;;5084508;28;20028;-69
2022/06/10 01:04:10;;;;;;;11.88;7.65;;;26.10;99.90;;;;;;5082892;28;20029;-71
2022/06/10 01:06:37;;;;;;;15.32;6.53;;;26.10;99.90;;;;;;5085975;28;20492;-72
2022/06/10 01:09:04;;;;;;;13.38;7.57;;;26.20;99.90;;;;;;5086799;28;20024;-71
2022/06/10 01:11:45;;;;;;;18.27;7.97;;;26.30;99.90;;;;;;5081586;28;20420;-72
2022/06/10 01:14:31;;;;;;;12.85;7.60;;;26.30;99.90;;;;;;5082394;28;20031;-70
2022/06/10 01:17:25;;;;;;;12.60;7.20;;;26.40;99.90;;;;;;5079031;28;20040;-73
2022/06/10 01:20:23;;;;;;;11.10;7.05;;;26.40;99.90;;;;;;5076811;28;20041;-73
2022/06/10 01:23:10;;;;;;;14.70;7.68;;;26.50;99.90;;;;;;5083538;28;20541;-71
2022/06/10 01:26:16;;;;;;;11.10;7.25;;;26.50;99.90;;;;;;5085674;28;20044;-67
2022/06/10 01:29:03;;;;;;;16.85;7.82;;;26.70;99.90;;;;;;5094958;28;20031;-66
2022/06/10 01:31:32;;;;;;;14.10;8.25;;;26.70;99.90;;;;;;5093077;28;20043;-66
2022/06/10 01:34:04;;;;;;;15.63;8.48;;;26.70;99.90;;;;;;5097316;28;20065;-65
2022/06/10 01:37:07;;;;;;;12.95;8.35;;;26.80;99.90;;;;;;5079341;28;20111;-66
2022/06/10 01:39:52;;;;;;;11.40;8.68;;;27.00;99.90;;;;;;5078510;28;20052;-65
2022/06/10 01:42:19;;;;;;;13.50;8.73;;;27.00;99.90;;;;;;5075353;28;20221;-65
2022/06/10 01:45:11;;;;;;;15.65;10.82;;;27.00;99.90;;;;;;5074361;28;20013;-65
2022/06/10 01:47:42;;;;;;;17.67;8.18;;;27.20;99.90;;;;;;5075382;28;20413;-65
2022/06/10 01:50:18;;;;;;;12.13;7.85;;;27.20;99.90;;;;;;5075203;28;20444;-66
2022/06/10 01:52:57;;;;;;;11.90;7.53;;;27.40;99.90;;;;;;5086670;28;20028;-65
2022/06/10 01:55:26;;;;;;;13.73;7.68;;;27.40;99.90;;;;;;5085997;28;20055;-66
2022/06/10 01:58:22;;;;;;;12.68;8.65;;;27.40;99.90;;;;;;5074317;28;20039;-63
2022/06/10 02:00:55;;;;;;;13.77;6.07;;;27.50;99.90;;;;;;5062483;28;20047;-65
2022/06/10 02:03:23;;;;;;;11.00;6.32;;;27.60;99.90;;;;;;5078442;28;20020;-65
2022/06/10 02:05:55;;;;;;;12.27;6.40;;;27.70;99.90;;;;;;5076130;28;20024;-64
2022/06/10 02:08:29;;;;;;;15.25;6.57;;;27.70;99.90;;;;;;5079365;28;20073;-66
2022/06/10 02:11:07;;;;;;;9.63;5.60;;;27.80;99.90;;;;;;5077201;28;20028;-66
2022/06/10 02:13:57;;;;;;;8.02;5.20;;;27.70;99.90;;;;;;5059551;28;20032;-67
2022/06/10 02:16:36;;;;;;;9.02;5.57;;;27.90;99.90;;;;;;5076648;28;20029;-66
2022/06/10 02:19:09;;;;;;;8.93;5.00;;;28.00;99.90;;;;;;5072704;28;20192;-66
2022/06/10 02:21:43;;;;;;;8.73;4.80;;;28.20;99.90;;;;;;5082653;28;20468;-65
2022/06/10 02:24:23;;;;;;;7.30;5.28;;;28.20;99.90;;;;;;5078292;28;20032;-66
2022/06/10 02:26:52;;;;;;;11.60;5.97;;;28.30;99.90;;;;;;5072555;28;20099;-66
2022/06/10 02:29:29;;;;;;;10.23;5.32;;;28.30;99.90;;;;;;5072445;28;20056;-65
2022/06/10 02:31:59;;;;;;;6.85;4.30;;;28.40;99.90;;;;;;5079907;28;20050;-66
2022/06/10 02:34:27;;;;;;;6.03;4.22;;;28.50;99.90;;;;;;5075415;28;20473;-66
2022/06/10 02:37:08;;;;;;;8.82;4.13;;;28.40;99.90;;;;;;5071973;28;20492;-66
2022/06/10 02:40:00;;;;;;;6.40;3.88;;;28.50;99.90;;;;;;5070823;28;20168;-67
2022/06/10 02:42:46;;;;;;;8.52;3.85;;;28.60;99.90;;;;;;5067525;28;20046;-66
2022/06/10 02:45:15;;;;;;;5.45;4.05;;;28.70;99.90;;;;;;5065732;28;20024;-65
2022/06/10 02:48:06;;;;;;;7.82;5.10;;;28.70;99.90;;;;;;5082424;28;20417;-65
2022/06/10 02:50:32;;;;;;;8.32;4.85;;;28.70;99.90;;;;;;5069977;28;20020;-66
2022/06/10 02:53:03;;;;;;;10.23;3.95;;;28.80;99.90;;;;;;5075329;28;20030;-67
2022/06/10 02:55:30;;;;;;;10.77;4.57;;;28.80;99.90;;;;;;5073103;28;20585;-67
2022/06/10 03:04:05;;;;;;;15.18;9.23;;;29.10;99.90;;;;;;5073970;28;20112;-68
2022/06/10 03:06:37;;;;;;;15.73;11.40;;;29.10;99.90;;;;;;5073259;28;20082;-67
2022/06/10 03:09:44;;;;;;;11.50;5.93;;;29.10;99.90;;;;;;5072413;28;20498;-67
2022/06/10 03:12:23;;;;;;;11.60;6.90;;;29.20;99.90;;;;;;5064517;28;20040;-68
2022/06/10 03:15:27;;;;;;;7.20;4.78;;;29.20;99.90;;;;;;5075876;28;20028;-68
2022/06/10 03:18:21;;;;;;;10.23;4.95;;;29.20;99.90;;;;;;5070615;28;20023;-67
2022/06/10 03:20:50;;;;;;;8.90;4.88;;;29.30;99.90;;;;;;5073930;28;20024;-68
2022/06/10 03:23:29;;;;;;;7.72;5.50;;;29.40;99.90;;;;;;5074707;28;20500;-67
2022/06/10 03:26:06;;;;;;;9.30;6.35;;;29.30;99.90;;;;;;5071587;28;20103;-67
2022/06/10 03:28:48;;;;;;;13.68;5.85;;;29.30;99.90;;;;;;5073013;28;20073;-67
2022/06/10 03:31:28;;;;;;;10.02;5.90;;;29.50;99.90;;;;;;5074164;28;20052;-70
2022/06/10 03:34:16;;;;;;;10.40;4.75;;;29.70;99.90;;;;;;5073865;28;20024;-67
2022/06/10 03:36:46;;;;;;;9.63;4.88;;;29.80;99.90;;;;;;5072150;28;20036;-69
2022/06/10 03:39:14;;;;;;;6.80;4.80;;;29.90;99.90;;;;;;5074814;28;20021;-68
2022/06/10 03:41:58;;;;;;;7.10;3.88;;;29.90;99.90;;;;;;5072658;28;20028;-68
2022/06/10 03:44:27;;;;;;;6.35;3.67;;;29.80;99.90;;;;;;5073442;28;20066;-67
2022/06/10 03:46:55;;;;;;;6.22;3.92;;;30.00;99.90;;;;;;5070786;28;20492;-67
2022/06/10 03:49:30;;;;;;;7.25;4.57;;;30.00;99.90;;;;;;5073345;28;20527;-67
2022/06/10 03:52:01;;;;;;;10.63;5.00;;;30.00;99.90;;;;;;5071008;28;20047;-64
2022/06/10 03:54:30;;;;;;;6.07;4.75;;;30.20;99.90;;;;;;5072692;28;20040;-65
2022/06/10 03:56:59;;;;;;;6.15;4.40;;;30.10;99.90;;;;;;5072957;28;20044;-66
2022/06/10 03:59:26;;;;;;;10.25;4.75;;;30.10;99.90;;;;;;5042589;28;20436;-67
2022/06/10 04:01:53;;;;;;;8.73;4.22;;;30.10;99.90;;;;;;5053994;28;20021;-65
2022/06/10 04:04:20;;;;;;;8.45;4.13;;;30.20;99.90;;;;;;5075231;28;20021;-66
2022/06/10 04:06:59;;;;;;;5.60;4.13;;;30.20;99.90;;;;;;5079118;28;20028;-67
2022/06/10 04:09:26;;;;;;;6.38;4.28;;;30.30;99.90;;;;;;5053141;28;20074;-64
2022/06/10 04:11:53;;;;;;;7.65;3.83;;;30.30;99.90;;;;;;5071605;28;20035;-66
2022/06/10 04:14:19;;;;;;;7.80;4.80;;;30.40;99.90;;;;;;5072881;28;20078;-66
2022/06/10 04:16:46;;;;;;;10.45;4.03;;;30.50;99.90;;;;;;5072474;28;20089;-68
2022/06/10 04:19:13;;;;;;;10.20;5.15;;;30.50;99.90;;;;;;5072515;28;20520;-67
2022/06/10 04:21:40;;;;;;;7.70;4.15;;;30.60;99.90;;;;;;5073395;28;20435;-67
2022/06/10 04:24:07;;;;;;;7.50;4.05;;;30.50;99.90;;;;;;5077532;28;20469;-66
2022/06/10 04:26:35;;;;;;;7.90;4.90;;;30.40;99.90;;;;;;5072150;28;20027;-69
2022/06/10 04:29:01;;;;;;;5.38;3.90;;;30.20;99.90;;;;;;5072327;28;20044;-69
2022/06/10 04:31:28;;;;;;;6.05;4.35;;;30.20;99.90;;;;;;5068933;28;20020;-68
2022/06/10 04:33:55;;;;;;;4.95;3.63;;;30.40;99.90;;;;;;5071004;28;20032;-64
2022/06/10 04:36:21;;;;;;;8.23;4.90;;;30.50;99.90;;;;;;5070424;28;20107;-66
2022/06/10 04:38:48;;;;;;;9.98;6.03;;;30.50;99.90;;;;;;5087925;28;20036;-65
2022/06/10 04:41:15;;;;;;;11.90;9.02;;;30.50;99.90;;;;;;5083003;28;20020;-65
2022/06/10 04:43:42;;;;;;;8.00;6.00;;;30.40;99.90;;;;;;5081017;28;20097;-65
2022/06/10 04:46:13;;;;;;;15.48;9.95;;;30.50;99.90;;;;;;5062207;28;20028;-64
2022/06/10 04:48:40;;;;;;;18.98;12.90;;;30.50;99.90;;;;;;5065603;28;20497;-66
2022/06/10 04:51:06;;;;;;;10.40;9.35;;;30.60;99.90;;;;;;5073356;28;20119;-66
2022/06/10 04:53:33;;;;;;;13.68;10.07;;;30.60;99.90;;;;;;5073061;28;20020;-65
2022/06/10 04:56:01;;;;;;;15.73;11.57;;;30.60;99.90;;;;;;5073023;28;20048;-66
2022/06/10 04:58:27;;;;;;;22.40;20.02;;;30.50;99.90;;;;;;5073048;28;20077;-65
2022/06/10 05:00:54;;;;;;;17.52;15.63;;;30.40;99.90;;;;;;5073338;28;20020;-66
2022/06/10 05:03:21;;;;;;;19.40;17.08;;;30.40;99.90;;;;;;5069419;28;20024;-64
2022/06/10 05:05:47;;;;;;;13.20;10.52;;;30.40;99.90;;;;;;5062192;28;20021;-63
2022/06/10 05:08:17;;;;;;;11.70;8.77;;;30.50;99.90;;;;;;5076659;28;20032;-64
2022/06/10 05:10:44;;;;;;;11.18;8.27;;;30.50;99.90;;;;;;5061288;28;20025;-65
2022/06/10 05:13:11;;;;;;;21.35;14.70;;;30.40;99.90;;;;;;5073002;28;20385;-67
2022/06/10 05:15:38;;;;;;;13.95;12.45;;;30.40;99.90;;;;;;5075248;28;20044;-66
2022/06/10 05:18:06;;;;;;;11.65;9.95;;;30.30;99.90;;;;;;5074672;28;20033;-66
2022/06/10 05:20:38;;;;;;;12.23;10.95;;;30.30;99.90;;;;;;5070218;28;20036;-66
2022/06/10 05:23:06;;;;;;;14.00;11.48;;;30.30;99.90;;;;;;5058968;28;20115;-66
2022/06/10 05:25:33;;;;;;;14.05;9.40;;;30.30;99.90;;;;;;5072798;28;20074;-64
2022/06/10 05:28:00;;;;;;;17.85;9.05;;;30.50;99.90;;;;;;5069127;28;20029;-64
2022/06/10 05:30:30;;;;;;;11.07;9.20;;;30.60;99.90;;;;;;5059795;28;20501;-63
2022/06/10 05:32:59;;;;;;;15.25;12.70;;;30.70;99.90;;;;;;5054402;28;20029;-63
2022/06/10 05:35:26;;;;;;;14.38;11.27;;;30.60;99.90;;;;;;5085243;28;20162;-62
2022/06/10 05:37:53;;;;;;;14.95;11.63;;;30.70;99.90;;;;;;5080200;28;20469;-65
2022/06/10 05:40:22;;;;;;;16.08;13.15;;;30.60;99.90;;;;;;5076352;28;20162;-65
2022/06/10 05:42:48;;;;;;;12.15;10.73;;;30.60;99.90;;;;;;5076107;28;20046;-67
2022/06/10 05:45:17;;;;;;;13.15;10.90;;;30.80;99.90;;;;;;5088385;28;20040;-65
2022/06/10 05:47:47;;;;;;;14.73;10.65;;;30.90;99.90;;;;;;5075339;28;20020;-64
2022/06/10 05:50:18;;;;;;;13.65;11.90;;;30.90;99.90;;;;;;5072277;28;20529;-63
2022/06/10 05:52:45;;;;;;;13.70;12.30;;;31.10;99.90;;;;;;5080165;28;20016;-64
2022/06/10 05:55:11;;;;;;;15.52;13.35;;;31.30;99.90;;;;;;5083717;28;20050;-64
2022/06/10 05:57:39;;;;;;;20.08;12.65;;;31.40;99.90;;;;;;5080798;28;20476;-65
2022/06/10 06:00:14;;;;;;;17.58;12.57;;;31.40;99.90;;;;;;5084756;28;20085;-65
2022/06/10 06:02:41;;;;;;;10.32;7.30;;;31.30;99.90;;;;;;5084921;28;20027;-65
2022/06/10 06:05:09;;;;;;;8.32;5.88;;;31.10;99.90;;;;;;5085340;28;20051;-65
2022/06/10 06:07:38;;;;;;;9.85;6.20;;;31.00;99.90;;;;;;5069456;28;20069;-64
2022/06/10 06:10:05;;;;;;;10.90;8.15;;;30.90;99.90;;;;;;5082021;28;20024;-65
2022/06/10 06:12:32;;;;;;;14.20;7.93;;;30.90;99.90;;;;;;5079613;28;20028;-65
2022/06/10 06:14:59;;;;;;;25.08;20.38;;;30.90;99.90;;;;;;5081340;28;20039;-65
2022/06/10 06:17:25;;;;;;;31.83;22.85;;;30.90;99.90;;;;;;5083295;28;20152;-64
2022/06/10 06:19:52;;;;;;;34.95;22.55;;;31.00;99.90;;;;;;5089460;28;20035;-62
2022/06/10 06:22:19;;;;;;;24.25;20.10;;;31.00;99.90;;;;;;5081962;28;20039;-64
2022/06/10 06:24:45;;;;;;;28.63;24.30;;;31.00;99.90;;;;;;5076123;28;20111;-67
2022/06/10 06:27:16;;;;;;;19.73;16.52;;;31.00;99.90;;;;;;5079136;28;20036;-64
2022/06/10 06:29:43;;;;;;;19.77;10.68;;;31.00;99.90;;;;;;5078573;28;20064;-66
2022/06/10 06:32:10;;;;;;;18.13;14.15;;;30.90;99.90;;;;;;5083046;28;20031;-65
2022/06/10 06:34:38;;;;;;;18.58;13.38;;;31.00;99.90;;;;;;5084401;28;20510;-66
2022/06/10 06:37:05;;;;;;;14.45;9.90;;;30.90;99.90;;;;;;5082373;28;20095;-66
2022/06/10 06:39:32;;;;;;;14.20;9.63;;;30.90;99.90;;;;;;5080368;28;20028;-66
2022/06/10 06:41:59;;;;;;;12.40;8.40;;;30.80;99.90;;;;;;5080874;28;20485;-65
2022/06/10 06:44:26;;;;;;;10.60;7.72;;;30.80;99.90;;;;;;5082379;28;20020;-64
2022/06/10 06:46:53;;;;;;;11.48;7.22;;;30.80;99.90;;;;;;5083476;28;20048;-66
2022/06/10 06:49:28;;;;;;;9.30;5.70;;;30.70;99.90;;;;;;5073722;28;20033;-66
2022/06/10 06:51:55;;;;;;;8.23;5.70;;;30.70;99.90;;;;;;5073196;28;20481;-63
2022/06/10 06:54:24;;;;;;;19.00;6.72;;;30.80;99.90;;;;;;5078247;28;20107;-63
2022/06/10 06:56:51;;;;;;;9.98;6.68;;;31.00;99.90;;;;;;5071216;28;20083;-64
2022/06/10 06:59:18;;;;;;;13.30;8.15;;;31.00;99.90;;;;;;5082060;28;20029;-64
2022/06/10 07:01:45;;;;;;;23.55;12.75;;;31.00;99.90;;;;;;5081941;28;20032;-64
2022/06/10 07:04:11;;;;;;;16.20;9.02;;;30.90;99.90;;;;;;5083129;28;20043;-65
2022/06/10 07:06:38;;;;;;;9.20;7.22;;;30.80;99.90;;;;;;5123161;23;20055;-65
2022/06/10 07:09:06;;;;;;;15.45;8.48;;;30.80;99.90;;;;;;5133608;27;20031;-65
2022/06/10 07:11:33;;;;;;;14.48;7.68;;;30.80;99.90;;;;;;5131361;27;20024;-64
2022/06/10 07:14:00;;;;;;;19.67;9.35;;;30.70;99.90;;;;;;5134266;27;20090;-64
2022/06/10 07:16:27;;;;;;;13.07;6.75;;;31.00;99.90;;;;;;5132435;27;20433;-64
2022/06/10 07:18:53;;;;;;;10.75;6.97;;;31.20;99.90;;;;;;5132029;27;20023;-63
2022/06/10 07:21:20;;;;;;;11.60;6.43;;;31.30;99.90;;;;;;5129676;27;20027;-65
2022/06/10 07:23:47;;;;;;;13.05;6.78;;;31.40;99.90;;;;;;5126759;27;20027;-64
2022/06/10 07:26:14;;;;;;;9.18;5.97;;;31.50;99.90;;;;;;5125906;27;20064;-64
2022/06/10 07:28:40;;;;;;;11.05;7.05;;;31.50;99.90;;;;;;5127928;27;20072;-67
2022/06/10 07:31:07;;;;;;;11.25;7.07;;;31.40;99.90;;;;;;5130343;27;20020;-63
2022/06/10 07:33:35;;;;;;;9.73;6.68;;;31.50;99.90;;;;;;5128993;27;20476;-63
2022/06/10 07:36:06;;;;;;;8.52;6.57;;;31.50;99.90;;;;;;5124830;27;20058;-64
2022/06/10 07:38:34;;;;;;;16.70;9.30;;;31.60;99.90;;;;;;5127517;27;20019;-65
2022/06/10 07:43:47;;;;;;;15.90;8.77;;;31.40;99.90;;;;;;5129690;27;20023;-63
2022/06/10 07:46:17;;;;;;;32.28;22.08;;;31.30;99.90;;;;;;5127525;27;20559;-64
2022/06/10 07:48:45;;;;;;;23.33;11.25;;;31.20;99.90;;;;;;5128016;27;20023;-64
2022/06/10 07:51:12;;;;;;;10.60;8.02;;;31.20;99.90;;;;;;5128589;27;20019;-64
2022/06/10 07:53:41;;;;;;;16.45;10.40;;;31.10;99.90;;;;;;5124321;27;20080;-62
2022/06/10 07:56:09;;;;;;;20.48;13.02;;;31.10;99.90;;;;;;5114867;27;20027;-63
2022/06/10 07:58:36;;;;;;;29.88;20.25;;;31.00;99.90;;;;;;5124565;27;20041;-64
2022/06/10 08:01:03;;;;;;;22.25;13.98;;;31.00;99.90;;;;;;5116361;28;20101;-64
2022/06/10 08:03:30;;;;;;;21.67;11.48;;;30.90;99.90;;;;;;5129347;27;20029;-64
2022/06/10 08:05:58;;;;;;;34.90;19.83;;;30.90;99.90;;;;;;5132783;27;20039;-64
2022/06/10 08:08:26;;;;;;;57.38;30.10;;;30.90;99.90;;;;;;5130385;27;20061;-63
2022/06/10 08:10:52;;;;;;;40.75;22.58;;;30.90;99.90;;;;;;5128133;27;20027;-65
2022/06/10 08:13:19;;;;;;;18.77;11.18;;;30.90;99.90;;;;;;5127956;27;20076;-64
2022/06/10 08:15:46;;;;;;;21.45;12.10;;;31.00;99.90;;;;;;5124401;27;20034;-64
2022/06/10 08:18:16;;;;;;;17.50;10.07;;;30.90;99.90;;;;;;5127234;27;20074;-64
2022/06/10 08:23:32;;;;;;;18.70;9.73;;;31.20;99.90;;;;;;5123652;27;20042;-65
2022/06/10 08:26:03;;;;;;;19.23;8.68;;;31.10;99.90;;;;;;5123564;28;20011;-66
2022/06/10 08:28:30;;;;;;;16.08;9.18;;;31.10;99.90;;;;;;5123295;28;20419;-66
2022/06/10 08:30:56;;;;;;;15.73;10.02;;;31.10;99.90;;;;;;5127811;28;20022;-65
2022/06/10 08:33:23;;;;;;;45.40;21.83;;;31.20;99.90;;;;;;5133949;28;20038;-67
2022/06/10 08:35:50;;;;;;;16.73;12.52;;;31.20;99.90;;;;;;5128710;28;20031;-68
2022/06/10 08:38:17;;;;;;;22.20;12.50;;;31.30;99.90;;;;;;5124835;28;20023;-66
2022/06/10 08:41:07;;;;;;;21.83;13.52;;;31.30;99.90;;;;;;5124565;28;20098;-66
2022/06/10 08:43:51;;;;;;;17.48;11.68;;;31.10;99.90;;;;;;5126274;28;20027;-65
2022/06/10 08:46:28;;;;;;;20.17;11.88;;;30.90;99.90;;;;;;5123323;28;20411;-64
2022/06/10 08:49:04;;;;;;;21.50;13.20;;;30.80;99.90;;;;;;5124371;28;20019;-64
2022/06/10 08:52:07;;;;;;;16.45;11.70;;;30.70;99.90;;;;;;5128691;28;20020;-67
2022/06/10 08:54:48;;;;;;;35.63;20.52;;;30.60;99.90;;;;;;5107909;28;20519;-66
2022/06/10 08:57:35;;;;;;;40.30;23.75;;;30.60;99.90;;;;;;5123818;28;20460;-66
2022/06/10 09:00:12;;;;;;;44.92;22.13;;;30.60;99.90;;;;;;5127956;28;20031;-66
2022/06/10 09:02:45;;;;;;;44.92;21.58;;;30.60;99.90;;;;;;5126761;28;20127;-66
2022/06/10 09:05:19;;;;;;;43.88;27.52;;;30.60;99.90;;;;;;5129939;28;20019;-65
2022/06/10 09:07:55;;;;;;;29.73;18.20;;;30.60;99.90;;;;;;5135409;27;20071;-65
2022/06/10 09:10:37;;;;;;;28.65;14.73;;;30.60;99.90;;;;;;5138205;27;20030;-65
2022/06/10 09:13:12;;;;;;;19.80;13.43;;;30.60;99.90;;;;;;5136485;27;20102;-66
2022/06/10 09:15:58;;;;;;;15.65;12.27;;;30.50;99.90;;;;;;5138247;27;20035;-65
2022/06/10 09:18:36;;;;;;;19.83;14.10;;;30.50;99.90;;;;;;5110950;27;20502;-65
2022/06/10 09:21:20;;;;;;;22.55;13.77;;;30.50;99.90;;;;;;5135149;27;20035;-65
2022/06/10 09:23:48;;;;;;;24.52;15.10;;;30.50;99.90;;;;;;5131192;27;20015;-65
2022/06/10 09:26:48;;;;;;;28.95;16.00;;;30.50;99.90;;;;;;5129388;27;20122;-65
2022/06/10 09:29:16;;;;;;;24.73;18.27;;;30.50;99.90;;;;;;5111370;27;20051;-65
2022/06/10 09:31:56;;;;;;;24.00;17.48;;;30.50;99.90;;;;;;5127855;27;20159;-65
2022/06/10 09:34:47;;;;;;;19.60;16.00;;;30.50;99.90;;;;;;5125741;27;20463;-64
2022/06/10 09:37:35;;;;;;;26.03;14.97;;;30.50;99.90;;;;;;5123738;27;20042;-64
2022/06/10 09:40:41;;;;;;;18.67;13.98;;;30.50;99.90;;;;;;5126802;27;20034;-66
2022/06/10 09:43:18;;;;;;;25.42;19.35;;;30.60;99.90;;;;;;5131288;27;20020;-65
2022/06/10 09:45:45;;;;;;;36.05;21.08;;;30.60;99.90;;;;;;5131721;27;20023;-65
2022/06/10 09:48:41;;;;;;;28.52;20.45;;;30.60;99.90;;;;;;5133938;27;20121;-65
2022/06/10 09:51:08;;;;;;;27.48;20.17;;;30.60;99.90;;;;;;5138422;27;20202;-65
2022/06/10 09:53:53;;;;;;;25.23;18.55;;;30.60;99.90;;;;;;5137523;27;20057;-64
2022/06/10 09:56:20;;;;;;;24.30;18.00;;;30.60;99.90;;;;;;5136726;27;20024;-64
2022/06/10 09:58:49;;;;;;;23.63;17.05;;;30.70;99.90;;;;;;5132175;27;20027;-66
2022/06/10 10:01:35;;;;;;;23.55;16.60;;;30.70;99.90;;;;;;5135068;27;20094;-65
2022/06/10 10:04:23;;;;;;;23.75;15.50;;;30.70;99.90;;;;;;5111412;27;20445;-65
2022/06/10 10:07:00;;;;;;;19.85;16.02;;;30.70;99.90;;;;;;5138162;27;20035;-65
2022/06/10 10:09:52;;;;;;;21.98;15.65;;;30.70;99.90;;;;;;5134324;27;20031;-63
2022/06/10 10:12:39;;;;;;;19.73;16.20;;;30.70;99.90;;;;;;5124744;27;20031;-63
2022/06/10 10:15:34;;;;;;;25.75;16.60;;;30.60;99.90;;;;;;5136463;27;20037;-63
2022/06/10 10:18:32;;;;;;;23.80;18.02;;;30.60;99.90;;;;;;5135941;27;20031;-66
2022/06/10 10:21:00;;;;;;;38.75;22.88;;;30.60;99.90;;;;;;5140656;27;20019;-64
2022/06/10 10:23:48;;;;;;;56.75;35.30;;;30.60;99.90;;;;;;5151170;27;20442;-65
2022/06/10 10:26:24;;;;;;;60.53;36.08;;;30.60;99.90;;;;;;5127177;27;20043;-65
2022/06/10 10:29:11;;;;;;;51.30;31.10;;;30.60;99.90;;;;;;5128750;27;20436;-67
2022/06/10 10:31:46;;;;;;;40.53;26.13;;;30.70;99.90;;;;;;5126333;27;20024;-65
2022/06/10 10:34:23;;;;;;;40.17;26.73;;;30.70;99.90;;;;;;5118511;27;20027;-65
2022/06/10 10:36:51;;;;;;;40.53;28.02;;;30.60;99.90;;;;;;5115316;28;20119;-66
2022/06/10 10:39:30;;;;;;;50.13;30.92;;;30.70;99.90;;;;;;5128687;27;20023;-70
2022/06/10 10:42:13;;;;;;;35.03;25.48;;;30.60;99.90;;;;;;5134081;27;20028;-66
2022/06/10 10:44:47;;;;;;;38.72;22.42;;;30.60;99.90;;;;;;5136133;27;20099;-65
2022/06/10 10:47:18;;;;;;;34.53;21.98;;;30.60;99.90;;;;;;5134747;27;20015;-65
2022/06/10 10:49:50;;;;;;;35.55;23.60;;;30.60;99.90;;;;;;5133731;27;20471;-67
2022/06/10 10:52:24;;;;;;;69.32;40.25;;;30.60;99.90;;;;;;5132018;27;20035;-65
2022/06/10 10:54:57;;;;;;;29.65;13.38;;;30.60;99.90;;;;;;5125824;27;20023;-62
2022/06/10 10:57:37;;;;;;;13.90;8.52;;;30.50;99.90;;;;;;5124841;27;20026;-64
2022/06/10 11:00:06;;;;;;;13.75;10.15;;;30.10;99.90;;;;;;5126726;27;20020;-64
2022/06/10 11:02:38;;;;;;;13.88;8.63;;;29.90;99.90;;;;;;5125545;27;20039;-67
2022/06/10 11:05:15;;;;;;;23.08;10.70;;;29.70;99.90;;;;;;5128010;27;20028;-67
2022/06/10 11:07:43;;;;;;;17.48;9.70;;;29.60;99.90;;;;;;5117833;27;20043;-66
2022/06/10 11:10:19;;;;;;;15.02;9.93;;;29.50;99.90;;;;;;5115314;27;20054;-66
2022/06/10 11:12:46;;;;;;;15.82;8.30;;;29.40;99.90;;;;;;5120963;27;20361;-66
2022/06/10 11:15:27;;;;;;;13.38;7.80;;;29.40;99.90;;;;;;5126136;27;20020;-69
2022/06/10 11:17:56;;;;;;;13.43;7.85;;;29.30;99.90;;;;;;5135490;27;20034;-66
2022/06/10 11:20:27;;;;;;;18.15;8.70;;;29.20;99.90;;;;;;5132704;27;20023;-66
2022/06/10 11:23:25;;;;;;;13.02;8.70;;;29.20;99.90;;;;;;5128763;27;20023;-64
2022/06/10 11:26:12;;;;;;;15.80;9.15;;;29.10;99.90;;;;;;5123650;27;20053;-66
2022/06/10 11:28:41;;;;;;;13.27;8.32;;;29.20;99.90;;;;;;5132811;27;20027;-63
2022/06/10 11:31:19;;;;;;;16.10;9.07;;;29.20;99.90;;;;;;5128869;27;20472;-67
2022/06/10 11:33:48;;;;;;;13.25;8.88;;;29.10;99.90;;;;;;5132754;27;20495;-65
2022/06/10 11:36:25;;;;;;;18.45;12.05;;;29.10;99.90;;;;;;5133325;27;20370;-65
2022/06/10 11:39:08;;;;;;;19.15;11.82;;;29.10;99.90;;;;;;5130579;27;20019;-66
2022/06/10 11:41:35;;;;;;;20.58;11.38;;;29.10;99.90;;;;;;5132505;27;20038;-66
2022/06/10 11:44:20;;;;;;;22.05;11.77;;;29.10;99.90;;;;;;5134167;27;20337;-65
2022/06/10 11:47:06;;;;;;;23.65;12.68;;;29.10;99.90;;;;;;5133675;27;20030;-63
2022/06/10 11:49:40;;;;;;;22.27;12.80;;;29.10;99.90;;;;;;5130708;27;20085;-63
2022/06/10 11:52:28;;;;;;;30.20;12.43;;;29.10;99.90;;;;;;5134713;27;20064;-64
2022/06/10 11:55:03;;;;;;;19.20;11.73;;;29.00;99.90;;;;;;5128316;27;20102;-64
2022/06/10 12:00:46;;;;;;;24.42;14.70;;;28.90;99.90;;;;;;5131502;27;20023;-64
2022/06/10 12:03:28;;;;;;;22.73;14.18;;;28.90;99.90;;;;;;5129630;27;20071;-62
2022/06/10 12:05:59;;;;;;;24.30;13.45;;;28.80;99.90;;;;;;5127229;27;20043;-63
2022/06/10 12:08:52;;;;;;;22.30;12.48;;;28.80;99.90;;;;;;5129959;27;20030;-66
2022/06/10 12:11:36;;;;;;;20.05;11.55;;;28.80;99.90;;;;;;5134649;27;20474;-63
2022/06/10 12:14:14;;;;;;;21.52;11.35;;;28.80;99.90;;;;;;5133407;27;20110;-61
2022/06/10 12:16:41;;;;;;;17.67;10.65;;;28.80;99.90;;;;;;5131351;27;20031;-61
2022/06/10 12:19:16;;;;;;;17.75;10.30;;;28.80;99.90;;;;;;5131144;27;20027;-64
2022/06/10 12:21:43;;;;;;;18.83;9.77;;;28.80;99.90;;;;;;5128230;27;20023;-64
2022/06/10 12:24:16;;;;;;;18.10;10.43;;;28.80;99.90;;;;;;5130114;27;20463;-63
2022/06/10 12:27:04;;;;;;;16.25;9.85;;;28.80;99.90;;;;;;5107637;22;20498;-64
2022/06/10 12:29:45;;;;;;;21.38;11.95;;;28.80;99.90;;;;;;5074976;28;20134;-63
2022/06/10 12:32:28;;;;;;;18.35;12.60;;;28.70;99.90;;;;;;5089099;28;20028;-64
2022/06/10 12:34:57;;;;;;;24.73;12.90;;;28.70;99.90;;;;;;5101725;28;20043;-63
2022/06/10 12:37:36;;;;;;;24.45;12.80;;;28.80;99.90;;;;;;5098902;28;20110;-64
2022/06/10 12:40:23;;;;;;;18.90;10.52;;;28.80;99.90;;;;;;5105499;28;20016;-64
2022/06/10 12:42:55;;;;;;;21.92;12.27;;;28.70;99.90;;;;;;5098326;28;20378;-63
2022/06/10 12:45:22;;;;;;;22.02;13.10;;;28.70;99.90;;;;;;5095301;28;20056;-65
2022/06/10 12:47:57;;;;;;;22.85;13.77;;;28.70;99.90;;;;;;5100067;28;20036;-63
2022/06/10 12:50:28;;;;;;;26.52;14.75;;;28.70;99.90;;;;;;5094713;28;20024;-63
2022/06/10 12:53:15;;;;;;;25.77;15.53;;;28.70;99.90;;;;;;5093211;28;20147;-64
2022/06/10 12:55:54;;;;;;;23.92;12.32;;;28.70;99.90;;;;;;5086341;28;20024;-65
2022/06/10 12:58:42;;;;;;;25.75;13.93;;;28.70;99.90;;;;;;5110391;28;20031;-64
2022/06/10 13:01:14;;;;;;;23.75;12.75;;;28.80;99.90;;;;;;5092320;28;20027;-65
2022/06/10 13:03:42;;;;;;;;;;;28.80;99.90;;;;;;5090317;28;20024;-64
2022/06/10 13:06:31;;;;;;;30.50;17.92;;;28.80;99.90;;;;;;5088912;28;20288;-66
2022/06/10 13:09:18;;;;;;;35.20;18.65;;;28.80;99.90;;;;;;5087981;28;20036;-66
2022/06/10 13:12:05;;;;;;;42.25;21.13;;;28.80;99.90;;;;;;5084024;28;20077;-64
2022/06/10 13:14:35;;;;;;;42.33;21.58;;;28.70;99.90;;;;;;5074545;28;20485;-64
2022/06/10 13:17:23;;;;;;;40.83;21.48;;;28.70;99.90;;;;;;5071190;28;20194;-67
2022/06/10 13:19:58;;;;;;;36.03;20.48;;;28.60;99.90;;;;;;5061893;28;20036;-63
2022/06/10 13:22:38;;;;;;;42.00;21.25;;;28.60;99.90;;;;;;5072984;28;20067;-62